Time;durP1;ratioP1;P1;durP2;ratioP2;P2;SDS_P1;SDS_P2;PMS_P1;PMS_P2;Temp;Humidity;BMP_temperature;BMP_pressure;BME280_temperature;BME280_humidity;BME280_pressure;Samples;Min_cycle;Max_cycle;Signal;HPM_P1;HPM_P2
2024/01/31 00:01:04;;;;;;;;;48.00;39.00;;;;;;;;4998792;28;45115;-82
2024/01/31 00:03:36;;;;;;;;;41.33;37.67;;;;;;;;5017594;28;44716;-82
2024/01/31 00:06:02;;;;;;;;;41.67;36.00;;;;;;;;4999589;28;45059;-82
2024/01/31 00:08:27;;;;;;;;;38.00;35.67;;;;;;;;5016177;28;45061;-81
2024/01/31 00:10:53;;;;;;;;;31.67;30.67;;;;;;;;4997369;28;44930;-82
2024/01/31 00:13:18;;;;;;;;;39.33;36.00;;;;;;;;4997357;28;45173;-83
2024/01/31 00:15:43;;;;;;;;;38.00;35.00;;;;;;;;5015103;28;45357;-83
2024/01/31 00:18:08;;;;;;;;;38.67;35.33;;;;;;;;4997171;28;47073;-82
2024/01/31 00:20:34;;;;;;;;;42.33;38.33;;;;;;;;5016254;28;44761;-82
2024/01/31 00:22:59;;;;;;;;;41.00;39.00;;;;;;;;4998808;28;44738;-82
2024/01/31 00:25:24;;;;;;;;;40.00;37.33;;;;;;;;5016637;28;45222;-82
2024/01/31 00:27:49;;;;;;;;;46.33;39.67;;;;;;;;5016570;28;45340;-81
2024/01/31 00:30:15;;;;;;;;;41.33;38.33;;;;;;;;4997047;28;44981;-82
2024/01/31 00:32:47;;;;;;;;;42.33;38.33;;;;;;;;5016128;28;44707;-82
2024/01/31 00:35:12;;;;;;;;;40.00;38.00;;;;;;;;4998061;28;44925;-83
2024/01/31 00:37:37;;;;;;;;;42.00;34.33;;;;;;;;5015860;28;45353;-82
2024/01/31 00:40:05;;;;;;;;;43.00;38.00;;;;;;;;4997363;28;45358;-82
2024/01/31 00:42:31;;;;;;;;;39.67;37.00;;;;;;;;4998175;28;44891;-82
2024/01/31 00:44:56;;;;;;;;;48.00;39.67;;;;;;;;4980281;28;44941;-82
2024/01/31 00:47:21;;;;;;;;;45.67;39.00;;;;;;;;5016321;28;44992;-83
2024/01/31 00:49:46;;;;;;;;;43.33;38.33;;;;;;;;5014930;28;45200;-83
2024/01/31 00:52:13;;;;;;;;;40.00;37.00;;;;;;;;4997257;28;45119;-82
2024/01/31 00:54:38;;;;;;;;;38.67;36.33;;;;;;;;4997621;28;44979;-82
2024/01/31 00:57:03;;;;;;;;;38.33;36.00;;;;;;;;5015514;28;45460;-82
2024/01/31 00:59:29;;;;;;;;;40.67;38.33;;;;;;;;5016101;28;45480;-82
2024/01/31 01:01:54;;;;;;;;;45.33;38.00;;;;;;;;4997257;28;44914;-83
2024/01/31 01:04:20;;;;;;;;;36.00;35.33;;;;;;;;5016619;28;44789;-81
2024/01/31 01:06:45;;;;;;;;;36.67;35.67;;;;;;;;5015548;28;45248;-82
2024/01/31 01:09:10;;;;;;;;;38.67;32.33;;;;;;;;5014727;28;44777;-82
2024/01/31 01:11:35;;;;;;;;;39.33;35.67;;;;;;;;4996564;28;44884;-83
2024/01/31 01:14:00;;;;;;;;;42.00;36.00;;;;;;;;5014414;28;45208;-82
2024/01/31 01:16:26;;;;;;;;;38.67;37.00;;;;;;;;5014026;28;45426;-81
2024/01/31 01:18:51;;;;;;;;;42.67;36.00;;;;;;;;4995761;28;45443;-82
2024/01/31 01:21:16;;;;;;;;;38.00;34.67;;;;;;;;5015187;28;45452;-83
2024/01/31 01:23:41;;;;;;;;;38.33;34.00;;;;;;;;4997212;28;44915;-82
2024/01/31 01:26:06;;;;;;;;;27.67;25.67;;;;;;;;5014956;28;45476;-81
2024/01/31 01:28:32;;;;;;;;;30.33;28.33;;;;;;;;4997306;28;45184;-83
2024/01/31 01:30:57;;;;;;;;;35.00;33.00;;;;;;;;5014038;28;44821;-82
2024/01/31 01:33:22;;;;;;;;;39.33;36.00;;;;;;;;5014831;28;44876;-82
2024/01/31 01:35:47;;;;;;;;;30.33;29.33;;;;;;;;4995945;28;47166;-81
2024/01/31 01:38:13;;;;;;;;;37.67;33.33;;;;;;;;5017796;28;44775;-82
2024/01/31 01:40:44;;;;;;;;;31.67;31.67;;;;;;;;5018594;28;44813;-82
2024/01/31 01:43:17;;;;;;;;;28.67;24.00;;;;;;;;5018009;28;44922;-82
2024/01/31 01:45:42;;;;;;;;;29.33;25.00;;;;;;;;5001664;28;47710;-81
2024/01/31 01:48:08;;;;;;;;;26.00;24.67;;;;;;;;5019116;28;44707;-82
2024/01/31 01:50:37;;;;;;;;;29.00;26.00;;;;;;;;5000774;28;45333;-81
2024/01/31 01:53:02;;;;;;;;;25.00;21.00;;;;;;;;4998757;28;44987;-82
2024/01/31 01:55:28;;;;;;;;;27.33;26.33;;;;;;;;4999788;28;46129;-83
2024/01/31 01:57:53;;;;;;;;;32.67;27.67;;;;;;;;4999962;28;44928;-82
2024/01/31 02:00:18;;;;;;;;;23.33;22.33;;;;;;;;5018137;28;44781;-82
2024/01/31 02:02:44;;;;;;;;;10.00;10.00;;;;;;;;5003049;28;44961;-82
2024/01/31 02:05:09;;;;;;;;;13.67;12.67;;;;;;;;5002296;28;48018;-82
2024/01/31 02:07:35;;;;;;;;;13.67;13.67;;;;;;;;5001225;28;45330;-82
2024/01/31 02:10:00;;;;;;;;;14.67;13.00;;;;;;;;5018340;28;45335;-81
2024/01/31 02:12:25;;;;;;;;;13.33;11.67;;;;;;;;5018255;28;44855;-82
2024/01/31 02:14:52;;;;;;;;;9.00;9.00;;;;;;;;5000910;28;47206;-82
2024/01/31 02:17:17;;;;;;;;;11.33;11.33;;;;;;;;5016628;28;44822;-82
2024/01/31 02:19:42;;;;;;;;;13.67;13.00;;;;;;;;4997870;28;45246;-82
2024/01/31 02:22:12;;;;;;;;;13.33;12.00;;;;;;;;4999073;28;44990;-82
2024/01/31 02:24:37;;;;;;;;;16.33;14.67;;;;;;;;5000491;28;47136;-81
2024/01/31 02:27:02;;;;;;;;;15.00;14.33;;;;;;;;4998945;28;44868;-82
2024/01/31 02:29:27;;;;;;;;;14.33;14.00;;;;;;;;5016743;28;45021;-82
2024/01/31 02:31:53;;;;;;;;;14.67;13.33;;;;;;;;4999663;28;44962;-82
2024/01/31 02:34:18;;;;;;;;;13.33;12.33;;;;;;;;5018591;28;44998;-83
2024/01/31 02:36:43;;;;;;;;;14.00;13.00;;;;;;;;5000502;28;45338;-81
2024/01/31 02:39:09;;;;;;;;;10.00;10.00;;;;;;;;5019011;28;44813;-82
2024/01/31 02:41:34;;;;;;;;;14.00;12.67;;;;;;;;5000337;28;44837;-82
2024/01/31 02:43:59;;;;;;;;;9.00;9.00;;;;;;;;5018665;28;45023;-82
2024/01/31 02:46:25;;;;;;;;;12.00;12.00;;;;;;;;5017648;28;44784;-83
2024/01/31 02:48:50;;;;;;;;;7.33;7.33;;;;;;;;4998890;28;44742;-82
2024/01/31 02:51:15;;;;;;;;;9.33;9.33;;;;;;;;5018150;28;44791;-82
2024/01/31 02:53:41;;;;;;;;;9.00;7.00;;;;;;;;5001084;28;47115;-83
2024/01/31 02:56:09;;;;;;;;;12.00;10.00;;;;;;;;5019619;28;44874;-82
2024/01/31 02:58:35;;;;;;;;;8.67;8.67;;;;;;;;4999368;28;45043;-82
2024/01/31 03:01:00;;;;;;;;;8.67;8.67;;;;;;;;5018014;28;45223;-82
2024/01/31 03:03:25;;;;;;;;;11.00;9.67;;;;;;;;5000835;28;47047;-82
2024/01/31 03:05:51;;;;;;;;;11.33;9.33;;;;;;;;4999685;28;45267;-83
2024/01/31 03:08:16;;;;;;;;;9.67;9.67;;;;;;;;5019523;28;45236;-82
2024/01/31 03:10:44;;;;;;;;;8.33;8.33;;;;;;;;5018781;28;44841;-81
2024/01/31 03:13:09;;;;;;;;;11.33;10.33;;;;;;;;4999335;28;47309;-82
2024/01/31 03:15:34;;;;;;;;;10.00;8.33;;;;;;;;4983513;28;45166;-82
2024/01/31 03:17:59;;;;;;;;;7.33;7.33;;;;;;;;5000637;28;44847;-82
2024/01/31 03:20:25;;;;;;;;;8.67;8.67;;;;;;;;5000696;28;44822;-82
2024/01/31 03:22:50;;;;;;;;;7.33;7.00;;;;;;;;5018309;28;45147;-83
2024/01/31 03:25:15;;;;;;;;;10.00;9.00;;;;;;;;5018270;28;45099;-83
2024/01/31 03:27:40;;;;;;;;;10.33;9.00;;;;;;;;5000882;28;44848;-83
2024/01/31 03:30:06;;;;;;;;;8.67;7.67;;;;;;;;5000616;28;44843;-82
2024/01/31 03:32:31;;;;;;;;;11.67;10.33;;;;;;;;5017265;28;45427;-82
2024/01/31 03:34:57;;;;;;;;;14.00;11.00;;;;;;;;5000560;28;45431;-82
2024/01/31 03:37:22;;;;;;;;;11.00;9.00;;;;;;;;5001067;28;45184;-83
2024/01/31 03:39:47;;;;;;;;;9.00;9.00;;;;;;;;5017901;28;44782;-82
2024/01/31 03:42:13;;;;;;;;;8.67;8.00;;;;;;;;5015576;28;46203;-83
2024/01/31 03:44:38;;;;;;;;;11.67;10.00;;;;;;;;4999390;28;44769;-82
2024/01/31 03:47:03;;;;;;;;;10.67;7.00;;;;;;;;4998585;28;44889;-83
2024/01/31 03:49:30;;;;;;;;;9.00;9.00;;;;;;;;5017220;28;45222;-82
2024/01/31 03:51:56;;;;;;;;;11.33;10.67;;;;;;;;5016245;28;45507;-82
2024/01/31 03:54:21;;;;;;;;;12.00;12.00;;;;;;;;5000301;28;44813;-83
2024/01/31 03:56:46;;;;;;;;;13.33;10.00;;;;;;;;5000376;28;44849;-83
2024/01/31 03:59:11;;;;;;;;;10.67;10.67;;;;;;;;4999991;28;44821;-83
2024/01/31 04:01:37;;;;;;;;;11.00;10.00;;;;;;;;5017787;28;45047;-83
2024/01/31 04:04:03;;;;;;;;;8.67;7.33;;;;;;;;4999259;28;44927;-83
2024/01/31 04:06:28;;;;;;;;;10.67;10.00;;;;;;;;4999935;28;45328;-83
2024/01/31 04:08:53;;;;;;;;;12.00;12.00;;;;;;;;4999737;28;45250;-83
2024/01/31 04:11:19;;;;;;;;;9.67;9.00;;;;;;;;5000062;28;47454;-83
2024/01/31 04:13:44;;;;;;;;;9.67;9.67;;;;;;;;5000769;28;44874;-83
2024/01/31 04:16:14;;;;;;;;;9.67;9.67;;;;;;;;5000473;28;44775;-83
2024/01/31 04:18:39;;;;;;;;;17.67;16.00;;;;;;;;5000686;28;44913;-82
2024/01/31 04:21:04;;;;;;;;;21.33;21.33;;;;;;;;5018027;28;45095;-82
2024/01/31 04:23:29;;;;;;;;;21.00;21.00;;;;;;;;5017214;28;44886;-82
2024/01/31 04:25:56;;;;;;;;;23.00;21.67;;;;;;;;5001108;28;44829;-83
2024/01/31 04:28:23;;;;;;;;;20.00;20.00;;;;;;;;5017055;28;44977;-82
2024/01/31 04:30:49;;;;;;;;;21.00;21.00;;;;;;;;5016729;28;46281;-83
2024/01/31 04:33:14;;;;;;;;;31.00;24.67;;;;;;;;4999557;28;44870;-82
2024/01/31 04:35:39;;;;;;;;;18.67;18.67;;;;;;;;5018432;28;45140;-84
2024/01/31 04:38:05;;;;;;;;;27.00;25.33;;;;;;;;5017676;28;45170;-82
2024/01/31 04:40:30;;;;;;;;;25.00;23.00;;;;;;;;4997941;28;47012;-81
2024/01/31 04:42:55;;;;;;;;;22.33;20.33;;;;;;;;4998549;28;45114;-82
2024/01/31 04:45:21;;;;;;;;;24.67;24.00;;;;;;;;4997886;28;45171;-81
2024/01/31 04:47:46;;;;;;;;;15.00;13.33;;;;;;;;5016712;28;45222;-82
2024/01/31 04:50:12;;;;;;;;;12.00;12.00;;;;;;;;4998608;28;46948;-82
2024/01/31 04:52:37;;;;;;;;;10.33;9.00;;;;;;;;5016071;28;44877;-82
2024/01/31 04:55:04;;;;;;;;;7.67;6.00;;;;;;;;5016851;28;44922;-83
2024/01/31 04:57:29;;;;;;;;;8.00;8.00;;;;;;;;5015620;28;44896;-82
2024/01/31 04:59:55;;;;;;;;;8.33;8.33;;;;;;;;4997780;28;47313;-82
2024/01/31 05:02:20;;;;;;;;;19.67;12.67;;;;;;;;4996873;28;45277;-81
2024/01/31 05:04:45;;;;;;;;;9.00;9.00;;;;;;;;4999009;28;44859;-83
2024/01/31 05:07:10;;;;;;;;;13.00;11.33;;;;;;;;4999353;28;44932;-82
2024/01/31 05:09:36;;;;;;;;;8.67;7.67;;;;;;;;5015807;28;45491;-82
2024/01/31 05:12:01;;;;;;;;;9.67;8.00;;;;;;;;5014847;28;44852;-82
2024/01/31 05:14:27;;;;;;;;;8.00;7.00;;;;;;;;5014645;28;44914;-82
2024/01/31 05:16:52;;;;;;;;;8.33;8.33;;;;;;;;4997541;28;44914;-82
2024/01/31 05:19:17;;;;;;;;;7.00;7.00;;;;;;;;5015832;28;45154;-83
2024/01/31 05:21:49;;;;;;;;;8.00;8.00;;;;;;;;4996467;28;45268;-83
2024/01/31 05:24:14;;;;;;;;;6.00;6.00;;;;;;;;5014847;28;44892;-81
2024/01/31 05:26:40;;;;;;;;;4.33;4.00;;;;;;;;4996109;28;44960;-82
2024/01/31 05:29:06;;;;;;;;;7.00;7.00;;;;;;;;5013298;28;45187;-83
2024/01/31 05:31:31;;;;;;;;;6.00;6.00;;;;;;;;5014629;28;44905;-82
2024/01/31 05:33:57;;;;;;;;;8.00;7.00;;;;;;;;5015069;28;44869;-82
2024/01/31 05:36:22;;;;;;;;;5.33;5.33;;;;;;;;5016915;28;44925;-82
2024/01/31 05:38:47;;;;;;;;;9.00;8.00;;;;;;;;5015542;28;45118;-82
2024/01/31 05:41:13;;;;;;;;;6.00;4.00;;;;;;;;5014999;28;44897;-83
2024/01/31 05:43:39;;;;;;;;;3.67;3.67;;;;;;;;5015372;28;44801;-83
2024/01/31 05:46:04;;;;;;;;;9.67;8.33;;;;;;;;5014747;28;44861;-83
2024/01/31 05:51:32;;;;;;;;;4.00;4.00;;;;;;;;5015192;28;44825;-82
2024/01/31 05:53:58;;;;;;;;;4.67;4.67;;;;;;;;4997824;28;45360;-82
2024/01/31 05:56:24;;;;;;;;;6.00;6.00;;;;;;;;4998538;28;44892;-82
2024/01/31 05:58:49;;;;;;;;;6.67;6.67;;;;;;;;5015286;28;45448;-82
2024/01/31 06:01:22;;;;;;;;;8.33;6.33;;;;;;;;4996857;28;44904;-82
2024/01/31 06:03:47;;;;;;;;;4.00;4.00;;;;;;;;4995386;28;44941;-82
2024/01/31 06:06:19;;;;;;;;;8.67;8.67;;;;;;;;5013444;28;44817;-82
2024/01/31 06:08:44;;;;;;;;;6.00;6.00;;;;;;;;4995467;28;47552;-83
2024/01/31 06:11:09;;;;;;;;;8.67;7.00;;;;;;;;4995051;28;44860;-83
2024/01/31 06:13:35;;;;;;;;;4.67;4.67;;;;;;;;4995854;28;45311;-83
2024/01/31 06:16:00;;;;;;;;;7.00;5.33;;;;;;;;5015366;28;44887;-83
2024/01/31 06:18:25;;;;;;;;;7.67;6.00;;;;;;;;4994381;28;47265;-82
2024/01/31 06:20:51;;;;;;;;;8.67;7.33;;;;;;;;5013400;28;44930;-83
2024/01/31 06:23:16;;;;;;;;;8.00;6.33;;;;;;;;5014997;28;44775;-83
2024/01/31 06:25:42;;;;;;;;;7.67;7.00;;;;;;;;4998210;28;44830;-84
2024/01/31 06:28:07;;;;;;;;;7.33;6.00;;;;;;;;4998932;28;45091;-83
2024/01/31 06:30:40;;;;;;;;;7.67;7.67;;;;;;;;4996414;28;44921;-83
2024/01/31 06:33:07;;;;;;;;;7.33;6.00;;;;;;;;4997694;28;45019;-82
2024/01/31 06:35:32;;;;;;;;;4.67;4.67;;;;;;;;4997998;28;44860;-82
2024/01/31 06:41:01;;;;;;;;;6.67;6.33;;;;;;;;5015703;28;45263;-83
2024/01/31 06:43:26;;;;;;;;;9.00;8.00;;;;;;;;4997390;28;45007;-83
2024/01/31 06:45:52;;;;;;;;;8.67;8.67;;;;;;;;4997157;28;45322;-82
2024/01/31 06:48:28;;;;;;;;;8.00;8.00;;;;;;;;5012593;28;45317;-85
2024/01/31 06:50:56;;;;;;;;;7.33;7.33;;;;;;;;4985939;28;45370;-84
2024/01/31 06:53:21;;;;;;;;;6.00;6.00;;;;;;;;4989637;28;44949;-84
2024/01/31 06:55:47;;;;;;;;;7.00;7.00;;;;;;;;4994040;28;45464;-86
2024/01/31 06:58:12;;;;;;;;;7.67;7.67;;;;;;;;4995792;28;47019;-87
2024/01/31 07:00:37;;;;;;;;;6.67;6.67;;;;;;;;4995157;28;44779;-88
2024/01/31 07:06:05;;;;;;;;;7.67;6.67;;;;;;;;5016689;28;44842;-85
2024/01/31 07:08:31;;;;;;;;;4.67;4.67;;;;;;;;5159064;22;45341;-86
2024/01/31 07:10:56;;;;;;;;;6.67;4.00;;;;;;;;4986442;28;44859;-85
2024/01/31 07:13:21;;;;;;;;;7.00;6.33;;;;;;;;5017287;28;45322;-86
2024/01/31 07:15:47;;;;;;;;;10.33;8.33;;;;;;;;4997347;28;44948;-85
2024/01/31 07:18:13;;;;;;;;;9.00;9.00;;;;;;;;5010478;28;45228;-85
2024/01/31 07:20:38;;;;;;;;;9.67;8.00;;;;;;;;4995362;28;44899;-85
2024/01/31 07:23:04;;;;;;;;;9.67;9.33;;;;;;;;5007101;28;44943;-84
2024/01/31 07:25:29;;;;;;;;;7.33;7.33;;;;;;;;5010094;28;44878;-84
2024/01/31 07:27:54;;;;;;;;;8.00;8.00;;;;;;;;5003031;28;45036;-85
2024/01/31 07:30:20;;;;;;;;;12.33;10.00;;;;;;;;4996614;28;44937;-85
2024/01/31 07:32:47;;;;;;;;;8.67;7.00;;;;;;;;4994788;28;45437;-85
2024/01/31 07:35:12;;;;;;;;;8.00;8.00;;;;;;;;5060435;22;46728;-85
2024/01/31 07:38:00;;;;;;;;;9.67;6.00;;;;;;;;5014245;28;45195;-85
2024/01/31 07:40:26;;;;;;;;;14.00;14.00;;;;;;;;4989013;28;45300;-85
2024/01/31 07:42:51;;;;;;;;;18.33;14.67;;;;;;;;5001039;28;44920;-84
2024/01/31 07:45:36;;;;;;;;;16.00;16.00;;;;;;;;5015830;28;44715;-85
2024/01/31 07:51:08;;;;;;;;;10.33;8.00;;;;;;;;4978447;28;44902;-86
2024/01/31 07:53:33;;;;;;;;;20.33;18.67;;;;;;;;5171984;22;46676;-85
2024/01/31 07:58:41;;;;;;;;;18.33;18.33;;;;;;;;5719122;22;46213;-85
2024/01/31 08:01:06;;;;;;;;;24.33;20.00;;;;;;;;5071356;22;44867;-84
2024/01/31 08:03:38;;;;;;;;;22.33;21.67;;;;;;;;5001030;28;44904;-84
2024/01/31 08:08:45;;;;;;;;;15.67;15.33;;;;;;;;5825765;22;46626;-86
2024/01/31 08:11:12;;;;;;;;;13.33;13.33;;;;;;;;5020094;28;44876;-83
2024/01/31 08:16:12;;;;;;;;;14.00;12.00;;;;;;;;5192967;22;46433;-87
2024/01/31 08:18:38;;;;;;;;;16.67;13.00;;;;;;;;5018605;28;45406;-83
2024/01/31 08:23:41;;;;;;;;;13.00;13.00;;;;;;;;5241976;22;46074;-84
2024/01/31 08:26:14;;;;;;;;;16.33;13.00;;;;;;;;5001084;28;44913;-84
2024/01/31 08:31:38;;;;;;;;;11.33;11.00;;;;;;;;5360279;22;46682;-85
2024/01/31 08:34:12;;;;;;;;;12.00;12.00;;;;;;;;5011798;28;44956;-84
2024/01/31 08:36:43;;;;;;;;;11.67;11.00;;;;;;;;5041427;22;44875;-83
2024/01/31 08:39:11;;;;;;;;;14.67;9.33;;;;;;;;4993781;28;47365;-85
2024/01/31 08:41:36;;;;;;;;;15.33;13.67;;;;;;;;4975443;28;44949;-83
2024/01/31 08:47:15;;;;;;;;;13.00;13.00;;;;;;;;5008683;28;45666;-88
2024/01/31 08:54:59;;;;;;;;;11.67;11.67;;;;;;;;6007134;22;46333;-82
2024/01/31 10:55:25;;;;;;;;;14.33;13.00;;;;;;;;5065726;22;46916;-82
2024/01/31 10:57:53;;;;;;;;;16.33;13.67;;;;;;;;4977473;28;44864;-83
2024/01/31 11:00:23;;;;;;;;;13.67;12.33;;;;;;;;4972665;28;45719;-81
2024/01/31 11:02:49;;;;;;;;;13.00;13.00;;;;;;;;4987181;28;45409;-82
2024/01/31 11:05:17;;;;;;;;;20.33;14.33;;;;;;;;4974393;28;47503;-82
2024/01/31 11:38:50;;;;;;;;;18.67;17.67;;;;;;;;3463995;22;46481;-83
2024/01/31 11:41:28;;;;;;;;;20.33;17.00;;;;;;;;4961468;28;45603;-83
2024/01/31 11:43:57;;;;;;;;;14.00;14.00;;;;;;;;4976948;28;45460;-82
2024/01/31 11:49:09;;;;;;;;;16.33;14.67;;;;;;;;4977058;28;45511;-82
2024/01/31 11:51:35;;;;;;;;;16.67;15.00;;;;;;;;4981333;28;45455;-83
2024/01/31 11:54:00;;;;;;;;;16.67;14.67;;;;;;;;4999236;28;45473;-81
2024/01/31 11:56:26;;;;;;;;;17.67;15.00;;;;;;;;4980874;28;45806;-82
2024/01/31 11:58:51;;;;;;;;;8.67;8.67;;;;;;;;4981161;28;48491;-82
2024/01/31 12:01:19;;;;;;;;;16.33;15.33;;;;;;;;4981964;28;45511;-82
2024/01/31 12:03:45;;;;;;;;;18.00;17.00;;;;;;;;4990754;28;45404;-79
2024/01/31 12:06:19;;;;;;;;;19.00;15.67;;;;;;;;5022095;28;45010;-83
2024/01/31 12:08:48;;;;;;;;;13.33;12.67;;;;;;;;4999076;28;47181;-82
2024/01/31 12:11:57;;;;;;;;;13.67;11.67;;;;;;;;5003373;28;45465;-85
2024/01/31 12:14:08;;;;;;;;;15.00;13.67;;;;;;;;5001278;28;45410;-84
2024/01/31 12:16:40;;;;;;;;;20.67;14.33;;;;;;;;5002481;28;45314;-86
2024/01/31 12:19:27;;;;;;;;;14.33;12.33;;;;;;;;5010731;28;45550;-82
2024/01/31 12:24:59;;;;;;;;;16.33;14.67;;;;;;;;5023271;28;45603;-83
2024/01/31 12:27:37;;;;;;;;;13.00;13.00;;;;;;;;4996714;28;44806;-82
2024/01/31 12:30:13;;;;;;;;;18.00;17.00;;;;;;;;4963471;28;47670;-84
2024/01/31 12:32:38;;;;;;;;;15.00;15.00;;;;;;;;5006433;28;45778;-81
2024/01/31 12:35:38;;;;;;;;;16.00;14.00;;;;;;;;4983728;28;45781;-84
2024/01/31 12:38:09;;;;;;;;;17.67;16.00;;;;;;;;4969954;28;45665;-81
2024/01/31 12:41:06;;;;;;;;;18.00;18.00;;;;;;;;4986887;28;48040;-85
2024/01/31 12:49:43;;;;;;;;;21.33;17.33;;;;;;;;5001203;28;45466;-86
2024/01/31 12:55:08;;;;;;;;;20.33;15.67;;;;;;;;4997050;28;45532;-86
2024/01/31 13:16:53;;;;;;;;;;;;;;;;;;;;;
2024/01/31 14:32:57;;;;;;;;;6.67;6.67;;;;;;;;6296331;22;45189;-86
